Time;durP1;ratioP1;P1;durP2;ratioP2;P2;SDS_P1;SDS_P2;PMS_P1;PMS_P2;Temp;Humidity;BMP_temperature;BMP_pressure;BME280_temperature;BME280_humidity;BME280_pressure;Samples;Min_cycle;Max_cycle;Signal;HPM_P1;HPM_P2
2022/06/21 00:01:58;;;;;;;7.30;3.40;;;;;;;22.67;81.39;99632.28;5531307;32;34402;-66
2022/06/21 00:05:01;;;;;;;5.57;3.08;;;;;;;22.68;81.51;99616.84;5531313;32;33858;-66
2022/06/21 00:08:17;;;;;;;10.65;3.30;;;;;;;22.68;81.17;99608.75;5531150;32;34009;-65
2022/06/21 00:11:27;;;;;;;11.10;3.22;;;;;;;22.72;80.84;99599.88;5529766;32;34782;-66
2022/06/21 00:14:30;;;;;;;8.40;2.92;;;;;;;22.72;80.81;99596.34;5531381;32;34037;-65
2022/06/21 00:17:33;;;;;;;8.75;3.10;;;;;;;22.73;80.17;99592.56;5531172;32;33933;-65
2022/06/21 00:20:35;;;;;;;7.93;3.40;;;;;;;22.64;80.37;99594.12;5530987;32;34315;-65
2022/06/21 00:23:38;;;;;;;6.22;3.15;;;;;;;22.60;80.86;99599.28;5531269;32;33964;-65
2022/06/21 00:26:41;;;;;;;8.82;3.17;;;;;;;22.56;80.83;99595.44;5530874;32;34590;-65
2022/06/21 00:29:44;;;;;;;8.35;3.17;;;;;;;22.49;81.43;99603.00;5530864;32;34546;-64
2022/06/21 00:32:49;;;;;;;4.62;3.10;;;;;;;22.40;82.09;99612.69;5530828;32;34641;-65
2022/06/21 00:35:56;;;;;;;8.43;3.60;;;;;;;22.42;81.78;99624.88;5531137;32;34128;-65
2022/06/21 00:39:00;;;;;;;10.20;3.92;;;;;;;22.27;82.97;99629.41;5529521;32;32631;-66
2022/06/21 00:42:19;;;;;;;6.32;2.80;;;;;;;22.31;82.65;99642.13;5530499;32;34484;-65
2022/06/21 00:45:40;;;;;;;5.55;2.58;;;;;;;22.32;79.58;99645.63;5530660;32;34160;-67
2022/06/21 00:48:44;;;;;;;3.72;2.55;;;;;;;22.38;78.37;99647.28;5530590;32;34285;-66
2022/06/21 00:51:51;;;;;;;5.47;2.80;;;;;;;22.40;77.24;99640.53;5530581;32;35235;-67
2022/06/21 00:55:05;;;;;;;10.30;2.67;;;;;;;22.43;76.58;99637.31;5530657;32;33878;-66
2022/06/21 00:58:15;;;;;;;5.07;2.60;;;;;;;22.37;77.03;99637.53;5530478;32;34369;-66
2022/06/21 01:01:25;;;;;;;5.00;2.50;;;;;;;22.26;77.71;99634.00;5530173;32;35194;-66
2022/06/21 01:04:38;;;;;;;6.95;2.58;;;;;;;22.22;78.21;99648.28;5530419;32;34691;-66
2022/06/21 01:07:42;;;;;;;5.97;2.40;;;;;;;22.18;77.85;99664.19;5530305;32;34022;-67
2022/06/21 01:10:48;;;;;;;6.18;2.55;;;;;;;22.18;76.13;99642.56;5530190;32;34019;-67
2022/06/21 01:13:55;;;;;;;4.87;2.20;;;;;;;22.21;74.50;99647.47;5530056;32;34911;-67
2022/06/21 01:16:59;;;;;;;10.13;2.40;;;;;;;22.16;74.35;99654.72;5530111;32;34571;-66
2022/06/21 01:20:08;;;;;;;4.47;2.03;;;;;;;22.07;74.89;99660.59;5529967;32;34005;-65
2022/06/21 01:23:33;;;;;;;5.85;2.70;;;;;;;21.99;75.20;99638.66;5531317;32;34220;-66
2022/06/21 01:26:51;;;;;;;7.55;2.78;;;;;;;21.91;75.70;99634.53;5532567;32;34445;-66
2022/06/21 01:29:57;;;;;;;4.82;2.50;;;;;;;21.81;76.70;99626.38;5531508;32;32615;-63
2022/06/21 01:33:01;;;;;;;4.45;2.35;;;;;;;21.67;78.13;99617.09;5532496;32;34589;-65
2022/06/21 01:36:16;;;;;;;5.15;2.42;;;;;;;21.58;nan;99632.12;5532768;32;34037;-64
2022/06/21 01:39:26;;;;;;;5.62;2.55;;;;;;;21.53;79.15;99642.87;5532465;32;35235;-64
2022/06/21 01:42:37;;;;;;;4.50;2.45;;;;;;;21.48;78.47;99642.84;5532679;32;34261;-65
2022/06/21 01:45:44;;;;;;;5.32;2.62;;;;;;;21.47;78.05;99655.53;5532305;32;35418;-65
2022/06/21 01:48:51;;;;;;;5.20;2.83;;;;;;;21.32;78.01;99646.47;5532286;32;34055;-64
2022/06/21 01:52:01;;;;;;;6.55;2.80;;;;;;;21.23;78.72;99660.44;5531895;32;34048;-66
2022/06/21 01:55:13;;;;;;;4.82;2.60;;;;;;;21.18;79.17;99683.84;5532353;32;33868;-65
2022/06/21 01:58:21;;;;;;;8.85;2.72;;;;;;;21.01;79.54;99677.69;5532257;32;33968;-65
2022/06/21 02:01:31;;;;;;;5.78;3.03;;;;;;;20.95;80.43;99694.88;5524352;32;261094;-66
2022/06/21 02:04:44;;;;;;;5.40;3.10;;;;;;;20.79;80.87;99701.94;5532110;32;34116;-65
2022/06/21 02:07:53;;;;;;;5.55;3.10;;;;;;;20.69;81.81;99697.25;5532522;32;33940;-66
2022/06/21 02:11:00;;;;;;;6.72;3.30;;;;;;;20.63;82.34;99687.47;5532159;32;34072;-67
2022/06/21 02:14:29;;;;;;;5.37;3.28;;;;;;;20.54;83.29;99697.03;5532481;32;35449;-66
2022/06/21 02:17:41;;;;;;;7.82;3.42;;;;;;;20.56;82.89;99691.41;5531957;32;34127;-67
2022/06/21 02:20:54;;;;;;;5.62;3.53;;;;;;;20.52;83.42;99674.94;5532077;32;33946;-65
2022/06/21 02:23:59;;;;;;;5.25;3.37;;;;;;;20.41;84.63;99683.13;5532081;32;34690;-66
2022/06/21 02:27:03;;;;;;;5.45;3.80;;;;;;;20.30;85.13;99691.06;5531994;32;34181;-67
2022/06/21 02:30:14;;;;;;;6.47;3.45;;;;;;;20.25;85.72;99682.88;5531920;32;34335;-66
2022/06/21 02:33:21;;;;;;;5.45;3.75;;;;;;;20.15;86.25;99677.34;5531224;32;33974;-66
2022/06/21 02:36:30;;;;;;;5.70;3.37;;;;;;;20.11;86.37;99686.97;5531940;32;33969;-66
2022/06/21 02:39:34;;;;;;;7.95;4.05;;;;;;;20.03;86.47;99687.41;5531947;32;35262;-67
2022/06/21 02:42:41;;;;;;;5.95;3.90;;;;;;;20.00;86.64;99695.13;5531709;32;33874;-65
2022/06/21 02:45:49;;;;;;;9.05;3.87;;;;;;;19.93;86.76;99687.25;5531820;32;35290;-65
2022/06/21 02:48:58;;;;;;;5.05;3.95;;;;;;;19.89;86.56;99686.09;5531669;32;34396;-66
2022/06/21 02:52:08;;;;;;;5.82;3.90;;;;;;;19.90;85.63;99688.53;5531812;32;34163;-65
2022/06/21 02:55:30;;;;;;;;;;;;;;;19.78;85.39;99708.53;5531336;32;34620;-66
2022/06/21 02:58:41;;;;;;;5.00;3.37;;;;;;;19.76;84.33;99714.16;5531831;32;34263;-64
2022/06/21 03:01:50;;;;;;;6.60;3.42;;;;;;;19.72;83.92;99706.81;5531479;32;33998;-65
2022/06/21 03:04:57;;;;;;;4.70;3.17;;;;;;;19.69;83.11;99707.31;5531733;32;33950;-65
2022/06/21 03:08:03;;;;;;;6.28;3.45;;;;;;;19.65;82.83;99716.91;5531728;32;34789;-64
2022/06/21 03:11:06;;;;;;;6.57;3.60;;;;;;;19.56;82.99;99735.31;5531644;32;34568;-65
2022/06/21 03:14:15;;;;;;;7.35;3.55;;;;;;;19.44;83.33;99734.56;5531655;32;33805;-65
2022/06/21 03:17:23;;;;;;;7.12;3.92;;;;;;;19.37;83.39;99747.31;5531713;32;33909;-65
2022/06/21 03:20:26;;;;;;;4.28;3.37;;;;;;;19.30;84.02;99746.66;5531549;32;34117;-66
2022/06/21 03:23:28;;;;;;;6.05;3.28;;;;;;;19.19;83.68;99759.06;5531447;32;34166;-67
2022/06/21 03:26:36;;;;;;;5.30;3.12;;;;;;;19.15;83.21;99768.66;5532062;32;34677;-64
2022/06/21 03:29:39;;;;;;;4.37;3.22;;;;;;;19.07;83.14;99771.75;5531404;32;35354;-65
2022/06/21 03:32:43;;;;;;;6.03;3.17;;;;;;;18.99;83.38;99770.22;5531403;32;33899;-65
2022/06/21 03:35:47;;;;;;;4.05;2.97;;;;;;;18.91;83.41;99765.22;5531705;32;33988;-66
2022/06/21 03:38:55;;;;;;;4.12;2.72;;;;;;;18.94;82.64;99770.13;5531383;32;34099;-65
2022/06/21 03:41:57;;;;;;;6.43;3.42;;;;;;;18.87;82.61;99788.25;5531336;32;34542;-66
2022/06/21 03:45:05;;;;;;;4.70;3.03;;;;;;;18.90;82.74;99801.22;5531049;32;34036;-66
2022/06/21 03:48:38;;;;;;;3.42;2.67;;;;;;;18.84;82.96;99804.84;5531285;32;34039;-65
2022/06/21 03:51:44;;;;;;;5.25;3.15;;;;;;;18.77;84.01;99812.22;5531329;32;34097;-66
2022/06/21 03:54:50;;;;;;;4.22;3.03;;;;;;;18.76;84.90;99809.75;5531324;32;33945;-65
2022/06/21 03:58:00;;;;;;;4.97;3.05;;;;;;;18.73;84.25;99807.56;5531229;32;35277;-65
2022/06/21 04:01:12;;;;;;;3.80;2.92;;;;;;;18.72;83.23;99812.09;5530443;32;32386;-64
2022/06/21 04:04:29;;;;;;;4.95;3.33;;;;;;;18.65;82.90;99801.47;5530986;32;34423;-65
2022/06/21 04:07:53;;;;;;;3.55;2.47;;;;;;;18.67;82.29;99804.75;5531380;32;34158;-65
2022/06/21 04:11:23;;;;;;;4.15;2.58;;;;;;;18.73;79.71;99812.94;5531027;32;33930;-65
2022/06/21 04:14:28;;;;;;;3.37;2.10;;;;;;;18.85;79.22;99821.78;5502129;32;34536;-65
2022/06/21 04:17:44;;;;;;;2.75;1.92;;;;;;;18.79;78.89;99822.72;5530975;32;34642;-66
2022/06/21 04:21:17;;;;;;;2.53;1.70;;;;;;;18.78;77.73;99824.63;5531053;32;34332;-65
2022/06/21 04:24:34;;;;;;;2.62;1.85;;;;;;;18.68;74.71;99821.69;5530145;32;32750;-65
2022/06/21 04:27:47;;;;;;;2.60;1.80;;;;;;;18.77;75.61;99825.66;5531044;32;33854;-66
2022/06/21 04:31:12;;;;;;;3.05;1.60;;;;;;;18.79;73.48;99825.41;5531155;32;34076;-66
2022/06/21 04:34:21;;;;;;;4.22;1.52;;;;;;;18.78;72.85;99821.09;5530804;32;34076;-65
2022/06/21 04:37:31;;;;;;;1.60;1.40;;;;;;;18.85;70.75;99827.97;5530855;32;34605;-66
2022/06/21 04:40:47;;;;;;;4.20;1.35;;;;;;;18.98;68.70;99825.03;5530776;32;34015;-66
2022/06/21 04:44:05;;;;;;;1.85;1.25;;;;;;;18.94;68.69;99834.63;5530720;32;34552;-66
2022/06/21 04:47:33;;;;;;;1.95;1.00;;;;;;;19.00;68.10;99839.06;5530677;32;34070;-66
2022/06/21 04:50:42;;;;;;;2.85;1.30;;;;;;;19.03;65.65;99849.34;5530660;32;34536;-66
2022/06/21 04:54:07;;;;;;;3.55;1.30;;;;;;;18.90;66.46;99856.84;5530399;32;35205;-66
2022/06/21 04:57:18;;;;;;;1.52;1.05;;;;;;;18.80;66.10;99846.69;5519544;32;34035;-66
2022/06/21 05:00:22;;;;;;;1.52;0.93;;;;;;;18.72;66.45;99855.09;5529964;32;34007;-66
2022/06/21 05:03:32;;;;;;;3.47;1.10;;;;;;;18.65;65.95;99863.25;5529243;32;33971;-67
2022/06/21 05:06:35;;;;;;;4.65;2.00;;;;;;;18.72;66.39;99860.47;5529934;32;34547;-67
2022/06/21 05:09:42;;;;;;;2.15;0.98;;;;;;;18.75;65.60;99857.31;5529936;32;35256;-66
2022/06/21 05:12:47;;;;;;;1.10;0.80;;;;;;;18.82;64.84;99866.09;5529967;32;34635;-66
2022/06/21 05:15:52;;;;;;;4.87;1.10;;;;;;;18.66;65.10;99864.91;5529345;32;34636;-68
2022/06/21 05:19:12;;;;;;;1.77;0.90;;;;;;;18.56;65.77;99864.66;5529825;32;34640;-68
2022/06/21 05:22:24;;;;;;;5.85;1.12;;;;;;;18.58;65.82;99865.25;5529197;32;34372;-66
2022/06/21 05:25:42;;;;;;;5.65;1.10;;;;;;;18.57;64.79;99873.53;5529557;32;34297;-66
2022/06/21 05:28:53;;;;;;;2.75;1.17;;;;;;;18.57;63.74;99873.53;5529466;32;34891;-67
2022/06/21 05:32:02;;;;;;;0.90;0.70;;;;;;;18.77;62.85;99867.84;5528726;32;34676;-65
2022/06/21 05:35:11;;;;;;;1.12;0.70;;;;;;;18.93;61.99;99877.88;5529176;32;34580;-66
2022/06/21 05:38:20;;;;;;;4.70;1.00;;;;;;;18.71;61.98;99879.50;5529423;32;34051;-67
2022/06/21 05:41:36;;;;;;;2.53;0.80;;;;;;;18.74;61.39;99885.22;5515947;32;34324;-68
2022/06/21 05:44:49;;;;;;;1.10;0.80;;;;;;;18.75;61.37;99873.44;5529323;32;35204;-66
2022/06/21 05:47:57;;;;;;;1.67;1.02;;;;;;;18.81;61.65;99877.88;5528591;32;34038;-67
2022/06/21 05:51:02;;;;;;;5.45;1.00;;;;;;;18.93;61.52;99881.38;5529319;32;33958;-66
2022/06/21 05:54:12;;;;;;;5.45;1.00;;;;;;;19.06;61.04;99878.47;5529259;32;33915;-68
2022/06/21 05:57:18;;;;;;;2.40;0.93;;;;;;;19.12;60.59;99877.50;5529076;32;34689;-68
2022/06/21 06:00:43;;;;;;;1.20;0.80;;;;;;;19.00;60.09;99878.56;5528311;32;34289;-67
2022/06/21 06:03:48;;;;;;;1.92;0.90;;;;;;;19.26;58.65;99888.03;5528376;32;32683;-65
2022/06/21 06:06:59;;;;;;;0.75;0.70;;;;;;;19.45;57.70;99895.75;5528684;32;34619;-67
2022/06/21 06:10:04;;;;;;;1.40;0.70;;;;;;;19.27;57.64;99903.91;5530516;32;34093;-65
2022/06/21 06:13:16;;;;;;;3.17;1.20;;;;;;;19.51;56.64;99912.78;5531958;32;33955;-66
2022/06/21 06:16:40;;;;;;;2.62;1.02;;;;;;;19.43;54.19;99905.88;5531488;32;33768;-65
2022/06/21 06:19:49;;;;;;;3.90;1.02;;;;;;;19.51;53.94;99912.78;5531927;32;34144;-66
2022/06/21 06:23:16;;;;;;;2.97;1.00;;;;;;;19.49;54.15;99921.12;5530745;32;34704;-66
2022/06/21 06:26:23;;;;;;;1.33;0.70;;;;;;;19.63;53.73;99921.66;5531155;32;33916;-67
2022/06/21 06:29:39;;;;;;;1.42;0.82;;;;;;;19.78;53.66;99911.22;5531267;32;34746;-66
2022/06/21 06:33:17;;;;;;;1.02;0.70;;;;;;;19.47;53.27;99925.09;5531474;32;34365;-66
2022/06/21 06:36:29;;;;;;;1.75;0.60;;;;;;;19.72;52.12;99912.16;5526022;32;33120;-68
2022/06/21 06:39:36;;;;;;;2.08;0.68;;;;;;;19.76;49.53;99915.19;5530413;32;32380;-66
2022/06/21 06:42:42;;;;;;;2.37;0.70;;;;;;;19.81;48.60;99912.59;5531746;32;33933;-65
2022/06/21 06:45:45;;;;;;;4.05;0.70;;;;;;;19.85;48.61;99913.75;5531925;32;35199;-66
2022/06/21 06:48:49;;;;;;;2.33;0.77;;;;;;;19.91;49.62;99920.88;5531374;32;34369;-66
2022/06/21 06:51:55;;;;;;;0.95;0.73;;;;;;;20.02;47.85;99917.34;5531725;32;34780;-68
2022/06/21 06:55:25;;;;;;;2.20;0.80;;;;;;;20.10;47.38;99925.00;5530723;32;33873;-65
2022/06/21 06:59:00;;;;;;;2.30;0.70;;;;;;;20.15;46.90;99932.37;5530666;32;32639;-67
2022/06/21 07:02:20;;;;;;;5.62;0.70;;;;;;;20.11;46.40;99934.75;5531077;32;34422;-67
2022/06/21 07:05:58;;;;;;;2.47;0.70;;;;;;;20.12;44.68;99939.06;5530850;32;34445;-67
2022/06/21 07:09:08;;;;;;;1.58;0.55;;;;;;;20.24;45.02;99941.69;5530616;32;34228;-66
2022/06/21 07:12:18;;;;;;;2.35;0.60;;;;;;;20.24;45.08;99949.78;5531228;32;33992;-69
2022/06/21 07:15:47;;;;;;;1.35;0.70;;;;;;;20.40;44.08;99940.97;5531187;32;34278;-67
2022/06/21 07:18:54;;;;;;;7.23;0.80;;;;;;;20.46;41.30;99944.56;5530863;32;34574;-65
2022/06/21 07:21:59;;;;;;;2.62;0.80;;;;;;;20.79;39.96;99964.28;5530969;32;34315;-67
2022/06/21 07:25:14;;;;;;;1.02;0.60;;;;;;;20.93;39.60;99955.84;5530950;32;33919;-66
2022/06/21 07:28:27;;;;;;;3.10;0.75;;;;;;;20.78;39.11;99957.25;5530235;32;32831;-66
2022/06/21 07:31:36;;;;;;;1.52;0.77;;;;;;;20.74;39.78;99980.38;5530849;32;34217;-66
2022/06/21 07:34:48;;;;;;;4.50;0.62;;;;;;;21.17;38.42;99973.53;5530309;32;33964;-68
2022/06/21 07:37:57;;;;;;;1.92;0.93;;;;;;;21.24;38.35;99977.72;5530585;32;34215;-67
2022/06/21 07:41:14;;;;;;;4.78;0.90;;;;;;;21.54;37.91;99981.91;5530147;32;33934;-66
2022/06/21 07:44:33;;;;;;;1.23;0.57;;;;;;;22.07;37.44;99973.97;5530697;32;34288;-68
2022/06/21 07:48:00;;;;;;;4.78;0.85;;;;;;;21.74;36.94;99981.34;5530767;32;33934;-67
2022/06/21 07:51:32;;;;;;;5.95;0.60;;;;;;;21.81;37.15;99965.78;5529806;32;33277;-66
2022/06/21 07:54:44;;;;;;;4.78;0.70;;;;;;;22.22;36.89;99970.63;5530961;32;33997;-66
2022/06/21 07:57:52;;;;;;;3.92;0.80;;;;;;;21.99;37.24;99970.91;5530646;32;34025;-67
2022/06/21 08:08:06;;;;;;;2.17;0.80;;;;;;;22.92;35.70;99986.75;5530639;32;34736;-67
2022/06/21 08:11:15;;;;;;;1.08;0.68;;;;;;;23.00;34.99;99974.62;5529832;32;33411;-67
2022/06/21 08:14:18;;;;;;;1.05;0.65;;;;;;;23.83;32.54;99979.22;5530116;32;34680;-67
2022/06/21 08:17:47;;;;;;;3.00;0.77;;;;;;;23.55;33.02;99976.13;5530056;32;32718;-67
2022/06/21 08:21:03;;;;;;;4.05;0.60;;;;;;;24.21;32.86;99979.94;5530262;32;33294;-68
2022/06/21 08:24:33;;;;;;;4.35;0.82;;;;;;;23.23;32.49;99981.56;5530483;32;33927;-67
2022/06/21 08:27:45;;;;;;;2.62;0.70;;;;;;;23.40;32.30;99988.44;5529724;32;32463;-68
2022/06/21 08:30:55;;;;;;;6.93;0.80;;;;;;;23.62;31.98;99982.12;5529708;32;35355;-66
2022/06/21 08:34:07;;;;;;;3.15;1.00;;;;;;;24.72;31.54;99990.91;5530797;32;35254;-67
2022/06/21 08:37:35;;;;;;;4.07;1.12;;;;;;;25.37;28.88;99980.03;5530781;32;34173;-67
2022/06/21 08:40:49;;;;;;;2.05;0.70;;;;;;;25.47;29.06;99993.59;5530010;32;32736;-67
2022/06/21 08:44:17;;;;;;;2.80;0.60;;;;;;;25.78;28.68;99988.09;5530277;32;34058;-66
2022/06/21 08:47:51;;;;;;;1.77;0.60;;;;;;;26.05;28.48;99988.53;5528610;32;32525;-67
2022/06/21 08:51:10;;;;;;;1.02;0.50;;;;;;;24.66;30.51;99993.59;5530525;32;33972;-66
2022/06/21 08:54:43;;;;;;;5.90;0.80;;;;;;;26.31;27.59;99991.97;5530361;32;33921;-69
2022/06/21 08:58:15;;;;;;;1.85;0.62;;;;;;;26.61;27.27;99991.78;5513644;32;33242;-68
2022/06/21 09:01:54;;;;;;;2.95;0.70;;;;;;;25.01;29.44;100000.16;5529155;32;32831;-66
2022/06/21 09:05:28;;;;;;;2.17;0.80;;;;;;;26.66;27.37;99999.09;5502437;32;33817;-66
2022/06/21 09:09:14;;;;;;;3.17;0.60;;;;;;;27.21;26.96;100000.56;5529793;32;33854;-68
2022/06/21 09:12:52;;;;;;;2.20;0.70;;;;;;;26.42;28.09;100000.91;5530243;32;33992;-67
2022/06/21 09:16:16;;;;;;;1.95;0.68;;;;;;;26.58;27.35;99997.78;5529947;32;34811;-66
2022/06/21 09:19:26;;;;;;;1.12;0.55;;;;;;;27.01;26.41;99998.06;5529647;32;33706;-67
2022/06/21 09:22:38;;;;;;;4.55;0.77;;;;;;;26.60;27.14;99989.34;5529540;32;34441;-67
2022/06/21 09:25:47;;;;;;;2.15;0.65;;;;;;;26.02;27.75;99999.97;5528970;32;34619;-66
2022/06/21 09:29:13;;;;;;;3.08;0.73;;;;;;;26.84;26.66;99990.25;5529633;32;34572;-66
2022/06/21 09:32:41;;;;;;;2.37;0.60;;;;;;;27.98;24.93;99996.78;5528494;32;33446;-70
2022/06/21 09:35:54;;;;;;;4.00;0.90;;;;;;;26.42;26.48;100009.87;5529542;32;34660;-66
2022/06/21 09:39:22;;;;;;;1.75;0.60;;;;;;;27.54;26.00;99997.03;5528680;32;33664;-67
2022/06/21 09:42:39;;;;;;;2.75;0.90;;;;;;;28.38;25.53;100002.81;5529914;32;33961;-67
2022/06/21 09:46:08;;;;;;;1.42;0.77;;;;;;;28.37;24.76;99999.28;5531937;32;35252;-67
2022/06/21 09:49:36;;;;;;;1.83;0.57;;;;;;;27.59;25.35;99998.91;5531563;32;34054;-67
2022/06/21 09:52:52;;;;;;;8.20;0.88;;;;;;;27.97;24.77;99987.00;5531154;32;34083;-67
2022/06/21 09:56:19;;;;;;;5.68;0.80;;;;;;;28.18;24.40;99987.56;5532303;32;34055;-68
2022/06/21 10:00:10;;;;;;;3.58;0.62;;;;;;;27.74;24.39;99995.19;5531971;32;34050;-69
2022/06/21 10:03:47;;;;;;;0.95;0.55;;;;;;;27.35;25.09;99987.94;5475197;32;33564;-66
2022/06/21 10:07:19;;;;;;;1.87;0.62;;;;;;;26.80;25.14;99981.84;5530578;32;32500;-67
2022/06/21 10:10:46;;;;;;;1.80;0.60;;;;;;;26.49;25.50;99991.31;5531316;32;32702;-69
2022/06/21 10:13:49;;;;;;;1.27;0.50;;;;;;;28.46;23.38;100000.28;5518680;32;32685;-67
2022/06/21 10:17:18;;;;;;;2.00;0.70;;;;;;;29.01;21.78;99977.87;5531781;32;35171;-67
2022/06/21 10:20:52;;;;;;;0.93;0.50;;;;;;;27.21;23.78;99997.84;5531831;32;34712;-67
2022/06/21 10:24:03;;;;;;;5.22;0.60;;;;;;;28.32;22.86;99990.38;5509801;32;33948;-66
2022/06/21 10:27:16;;;;;;;1.37;0.50;;;;;;;28.93;21.51;99998.47;5530710;32;34012;-65
2022/06/21 10:31:00;;;;;;;1.70;0.50;;;;;;;28.36;22.23;99980.50;5518104;32;33082;-66
2022/06/21 10:34:28;;;;;;;4.32;0.60;;;;;;;29.16;22.85;99994.00;5498059;32;34339;-67
2022/06/21 10:38:16;;;;;;;2.80;0.57;;;;;;;29.66;21.38;99998.56;5531053;32;32644;-68
2022/06/21 10:41:41;;;;;;;1.52;0.50;;;;;;;28.28;23.01;99989.31;5531760;32;34767;-68
2022/06/21 10:45:07;;;;;;;0.57;0.47;;;;;;;29.00;22.14;100001.62;5531953;32;34424;-66
2022/06/21 10:48:20;;;;;;;2.47;0.60;;;;;;;29.29;21.82;100002.22;5530983;32;32719;-66
2022/06/21 10:51:48;;;;;;;2.42;0.90;;;;;;;29.91;20.19;99994.56;5531620;32;34005;-67
2022/06/21 10:55:45;;;;;;;1.27;0.40;;;;;;;30.04;20.43;100006.59;5530804;32;33469;-68
2022/06/21 10:59:09;;;;;;;2.83;0.60;;;;;;;29.66;21.15;100001.31;5499173;32;32269;-66
2022/06/21 11:02:25;;;;;;;1.83;0.60;;;;;;;30.54;21.07;100010.19;5530515;32;34230;-66
2022/06/21 11:06:24;;;;;;;1.00;0.57;;;;;;;29.85;22.42;100006.66;5530807;32;33716;-68
2022/06/21 11:09:48;;;;;;;1.27;0.50;;;;;;;28.59;22.94;100008.81;5441113;32;33174;-67
2022/06/21 11:13:05;;;;;;;0.75;0.50;;;;;;;29.61;22.63;100009.59;5454566;32;33272;-67
2022/06/21 11:16:16;;;;;;;1.87;0.60;;;;;;;29.41;22.62;100011.88;5530756;32;34561;-68
2022/06/21 11:19:48;;;;;;;1.65;0.68;;;;;;;31.13;21.30;100013.72;5531421;32;35266;-68
2022/06/21 11:23:18;;;;;;;2.37;0.50;;;;;;;29.40;22.69;100013.81;5531583;32;34053;-69
2022/06/21 11:26:40;;;;;;;2.35;0.50;;;;;;;30.28;21.64;100009.91;5530714;32;32634;-66
2022/06/21 11:29:47;;;;;;;3.65;0.80;;;;;;;30.05;21.34;100025.44;5530599;32;32398;-66
2022/06/21 11:32:50;;;;;;;3.78;0.65;;;;;;;30.19;20.68;100028.97;5531470;32;34675;-65
2022/06/21 11:36:11;;;;;;;1.35;0.60;;;;;;;30.33;20.85;100023.47;5531155;32;34835;-67
2022/06/21 11:39:32;;;;;;;0.75;0.50;;;;;;;30.57;20.93;100021.31;5531516;32;34250;-67
2022/06/21 11:43:08;;;;;;;4.50;0.55;;;;;;;30.03;20.79;100018.62;5530290;32;32929;-68
2022/06/21 11:46:23;;;;;;;1.42;0.47;;;;;;;30.80;20.27;100027.63;5491692;32;33245;-68
2022/06/21 11:49:48;;;;;;;0.75;0.47;;;;;;;30.05;20.26;100024.63;5530128;32;33328;-68
2022/06/21 11:53:11;;;;;;;1.65;0.55;;;;;;;30.34;19.50;100019.63;5530772;32;34026;-67
2022/06/21 11:56:40;;;;;;;3.90;0.68;;;;;;;30.96;19.58;100028.88;5530255;32;32680;-67
2022/06/21 11:59:47;;;;;;;1.27;0.50;;;;;;;31.40;19.60;100016.28;5530345;32;32545;-67
2022/06/21 12:03:02;;;;;;;1.00;0.88;;;;;;;29.59;20.78;100014.53;5530902;32;33931;-67
2022/06/21 12:06:13;;;;;;;2.97;0.60;;;;;;;30.84;20.83;100027.81;5531033;32;34082;-67
2022/06/21 12:09:56;;;;;;;1.42;0.62;;;;;;;30.35;20.96;100023.97;5519221;32;32789;-67
2022/06/21 12:13:31;;;;;;;2.87;0.60;;;;;;;29.87;21.52;100009.09;5517289;32;33708;-68
2022/06/21 12:16:52;;;;;;;3.92;0.70;;;;;;;30.04;22.18;100021.06;5497768;32;34066;-67
2022/06/21 12:20:02;;;;;;;4.10;0.80;;;;;;;31.02;20.99;100018.62;5517683;32;33096;-68
2022/06/21 12:23:37;;;;;;;2.42;0.62;;;;;;;30.45;21.49;100006.53;5530176;32;32795;-69
2022/06/21 12:26:41;;;;;;;1.40;0.57;;;;;;;30.82;21.74;100008.97;5530746;32;34566;-67
2022/06/21 12:29:45;;;;;;;2.30;0.70;;;;;;;32.57;20.18;100011.03;5530181;32;33001;-67
2022/06/21 12:32:52;;;;;;;1.90;0.60;;;;;;;30.07;23.13;100001.31;5530619;32;33874;-68
2022/06/21 12:35:55;;;;;;;1.40;0.55;;;;;;;30.04;23.53;99985.50;5529712;32;33326;-67
2022/06/21 12:39:10;;;;;;;1.48;0.82;;;;;;;30.81;22.60;99979.94;5530516;32;34638;-67
2022/06/21 12:42:46;;;;;;;1.98;0.43;;;;;;;31.53;21.56;99966.03;5530596;32;34213;-71
2022/06/21 12:46:06;;;;;;;1.80;0.60;;;;;;;31.46;21.77;99977.47;5529918;32;34095;-67
2022/06/21 12:49:47;;;;;;;2.33;0.55;;;;;;;33.04;19.08;99977.09;5530544;32;33993;-69
2022/06/21 12:53:19;;;;;;;3.70;0.50;;;;;;;33.19;18.72;99962.84;5530477;32;34461;-68
2022/06/21 12:56:47;;;;;;;1.58;0.70;;;;;;;33.80;18.55;99974.41;5529798;32;33165;-68
2022/06/21 13:00:01;;;;;;;4.95;0.60;;;;;;;33.54;19.39;99971.78;5529707;32;32710;-69
2022/06/21 13:03:46;;;;;;;2.03;0.50;;;;;;;34.58;18.44;99968.41;5529217;32;33307;-68
2022/06/21 13:07:23;;;;;;;3.35;0.60;;;;;;;36.17;17.34;99957.34;5530196;32;34056;-68
2022/06/21 13:11:04;;;;;;;2.15;0.70;;;;;;;34.70;17.75;99958.28;5530529;32;34027;-67
2022/06/21 13:14:20;;;;;;;2.05;0.50;;;;;;;34.56;17.62;99968.75;5527052;32;32741;-68
2022/06/21 13:18:00;;;;;;;2.47;0.80;;;;;;;32.77;19.43;99969.22;5530501;32;34470;-67
2022/06/21 13:21:28;;;;;;;0.73;0.50;;;;;;;33.14;18.62;99967.69;5532725;32;33986;-68
2022/06/21 13:25:01;;;;;;;2.90;0.80;;;;;;;33.88;18.16;99950.75;5532413;32;35225;-68
2022/06/21 13:28:38;;;;;;;1.83;0.60;;;;;;;32.46;19.03;99976.78;5531384;32;32712;-67
2022/06/21 13:31:53;;;;;;;5.15;0.70;;;;;;;35.19;16.34;99959.28;5531371;32;33851;-67
2022/06/21 13:35:15;;;;;;;1.60;0.70;;;;;;;32.59;17.79;99949.16;5531292;32;33169;-66
2022/06/21 13:38:22;;;;;;;1.85;0.50;;;;;;;32.61;17.80;99968.88;5531282;32;32671;-67
2022/06/21 13:45:49;;;;;;;1.50;0.40;;;;;;;34.67;16.73;99958.09;5531915;32;35121;-68
2022/06/21 13:49:00;;;;;;;1.85;0.57;;;;;;;34.96;14.89;99982.00;5530987;32;32472;-68
2022/06/21 13:52:24;;;;;;;1.08;0.55;;;;;;;32.34;17.11;99983.72;5531011;32;34051;-68
2022/06/21 13:55:59;;;;;;;0.82;0.50;;;;;;;32.71;17.33;99976.00;5531052;32;34595;-67
2022/06/21 13:59:10;;;;;;;2.47;0.50;;;;;;;33.61;16.85;99990.50;5531523;32;34683;-69
2022/06/21 14:02:26;;;;;;;1.17;0.50;;;;;;;33.01;17.04;99965.94;5531299;32;34030;-67
2022/06/21 14:05:37;;;;;;;1.25;0.77;;;;;;;33.07;17.22;99983.84;5531567;32;34134;-68
2022/06/21 14:08:46;;;;;;;2.37;0.52;;;;;;;33.67;17.18;99971.88;5531220;32;34334;-68
2022/06/21 14:11:56;;;;;;;1.55;0.60;;;;;;;33.37;16.65;99969.09;5530759;32;33459;-67
2022/06/21 14:15:07;;;;;;;3.53;0.60;;;;;;;33.35;16.26;99959.56;5530996;32;34022;-67
2022/06/21 14:18:39;;;;;;;6.93;0.70;;;;;;;32.38;17.53;99953.69;5531417;32;34068;-67
2022/06/21 14:21:45;;;;;;;0.70;0.50;;;;;;;30.07;19.09;99943.84;5531689;32;34705;-68
2022/06/21 14:25:00;;;;;;;0.70;0.50;;;;;;;32.02;17.67;99953.13;5531391;32;35387;-68
2022/06/21 14:28:09;;;;;;;1.62;0.55;;;;;;;32.09;17.65;99950.72;5530587;32;33972;-68
2022/06/21 14:31:27;;;;;;;3.50;0.60;;;;;;;29.77;20.10;99945.28;5530336;32;34688;-68
2022/06/21 14:34:40;;;;;;;1.05;0.60;;;;;;;30.80;19.84;99945.44;5531367;32;34705;-68
2022/06/21 14:37:46;;;;;;;3.72;0.57;;;;;;;31.58;18.78;99943.97;5531238;32;34534;-68
2022/06/21 14:41:15;;;;;;;1.08;0.70;;;;;;;32.52;17.37;99940.59;5530700;32;33926;-69
2022/06/21 14:44:23;;;;;;;3.60;0.80;;;;;;;33.83;16.57;99945.44;5531098;32;35171;-68
2022/06/21 14:47:44;;;;;;;;;;;;;;;33.02;16.97;99940.84;5530566;32;34306;-68
2022/06/21 14:50:57;;;;;;;2.12;0.60;;;;;;;34.50;16.17;99936.22;5529621;32;34204;-68
2022/06/21 14:54:16;;;;;;;3.20;0.60;;;;;;;34.20;16.22;99932.75;5530052;32;33473;-67
2022/06/21 14:57:25;;;;;;;1.73;0.68;;;;;;;33.85;15.91;99934.91;5530733;32;34586;-67
2022/06/21 15:00:36;;;;;;;2.97;0.52;;;;;;;32.86;17.23;99937.03;5531045;32;34084;-67
2022/06/21 15:04:08;;;;;;;1.20;0.50;;;;;;;33.24;16.61;99939.06;5530780;32;34398;-69
2022/06/21 15:07:21;;;;;;;1.48;0.60;;;;;;;34.41;15.68;99945.38;5530934;32;34596;-68
2022/06/21 15:10:31;;;;;;;1.60;0.60;;;;;;;33.36;16.66;99947.41;5530956;32;34024;-68
2022/06/21 15:13:48;;;;;;;0.68;0.50;;;;;;;33.00;17.04;99931.34;5531074;32;35264;-70
2022/06/21 15:16:56;;;;;;;0.50;0.40;;;;;;;32.01;17.76;99929.56;5530925;32;34024;-68
2022/06/21 15:20:15;;;;;;;1.98;1.05;;;;;;;32.33;17.65;99932.69;5529587;32;34504;-67
2022/06/21 15:23:57;;;;;;;1.02;0.50;;;;;;;32.16;18.11;99924.44;5530924;32;34639;-68
2022/06/21 15:27:05;;;;;;;2.42;0.62;;;;;;;30.70;19.41;99917.50;5499545;32;33954;-67
2022/06/21 15:30:17;;;;;;;1.98;0.40;;;;;;;28.97;21.63;99922.22;5530458;32;34127;-68
2022/06/21 15:33:32;;;;;;;1.23;0.50;;;;;;;26.17;24.58;99912.09;5530607;32;34374;-70